sensor_id;sensor_type;location;lat;lon;timestamp;P1;durP1;ratioP1;P2;durP2;ratioP2
65552;SDS011;52465;51.560;14.368;2023-04-24T00:00:15;4.30;;;4.10;;
65552;SDS011;52465;51.560;14.368;2023-04-24T00:02:43;4.57;;;4.30;;
65552;SDS011;52465;51.560;14.368;2023-04-24T00:05:14;4.75;;;4.50;;
65552;SDS011;52465;51.560;14.368;2023-04-24T00:07:42;4.38;;;4.07;;
65552;SDS011;52465;51.560;14.368;2023-04-24T00:10:09;4.65;;;4.38;;
65552;SDS011;52465;51.560;14.368;2023-04-24T00:12:35;4.63;;;4.32;;
65552;SDS011;52465;51.560;14.368;2023-04-24T00:15:02;4.07;;;3.88;;
65552;SDS011;52465;51.560;14.368;2023-04-24T00:17:28;4.38;;;4.13;;
65552;SDS011;52465;51.560;14.368;2023-04-24T00:19:53;4.18;;;3.97;;
65552;SDS011;52465;51.560;14.368;2023-04-24T00:22:26;4.70;;;4.40;;
65552;SDS011;52465;51.560;14.368;2023-04-24T00:24:53;4.40;;;4.10;;
65552;SDS011;52465;51.560;14.368;2023-04-24T00:27:19;4.50;;;4.20;;
65552;SDS011;52465;51.560;14.368;2023-04-24T00:29:45;4.57;;;4.18;;
65552;SDS011;52465;51.560;14.368;2023-04-24T00:32:10;4.50;;;4.20;;
65552;SDS011;52465;51.560;14.368;2023-04-24T00:34:36;4.47;;;4.18;;
65552;SDS011;52465;51.560;14.368;2023-04-24T00:37:01;4.20;;;4.00;;
65552;SDS011;52465;51.560;14.368;2023-04-24T00:39:27;4.45;;;4.15;;
65552;SDS011;52465;51.560;14.368;2023-04-24T00:41:53;4.57;;;4.28;;
65552;SDS011;52465;51.560;14.368;2023-04-24T00:44:18;4.30;;;4.10;;
65552;SDS011;52465;51.560;14.368;2023-04-24T00:46:44;4.45;;;4.15;;
65552;SDS011;52465;51.560;14.368;2023-04-24T00:49:13;4.53;;;4.22;;
65552;SDS011;52465;51.560;14.368;2023-04-24T00:51:57;4.28;;;4.07;;
65552;SDS011;52465;51.560;14.368;2023-04-24T00:54:24;4.43;;;4.20;;
65552;SDS011;52465;51.560;14.368;2023-04-24T00:56:50;4.68;;;4.40;;
65552;SDS011;52465;51.560;14.368;2023-04-24T00:59:16;4.57;;;4.28;;
65552;SDS011;52465;51.560;14.368;2023-04-24T01:01:43;4.28;;;4.07;;
65552;SDS011;52465;51.560;14.368;2023-04-24T01:04:11;4.13;;;3.92;;
65552;SDS011;52465;51.560;14.368;2023-04-24T01:06:37;4.43;;;4.20;;
65552;SDS011;52465;51.560;14.368;2023-04-24T01:09:04;4.18;;;3.97;;
65552;SDS011;52465;51.560;14.368;2023-04-24T01:11:30;4.22;;;3.92;;
65552;SDS011;52465;51.560;14.368;2023-04-24T01:13:56;4.20;;;4.00;;
65552;SDS011;52465;51.560;14.368;2023-04-24T01:16:22;4.15;;;3.95;;
65552;SDS011;52465;51.560;14.368;2023-04-24T01:18:47;4.30;;;4.10;;
65552;SDS011;52465;51.560;14.368;2023-04-24T01:21:14;4.55;;;4.25;;
65552;SDS011;52465;51.560;14.368;2023-04-24T01:26:10;4.10;;;3.90;;
65552;SDS011;52465;51.560;14.368;2023-04-24T01:28:35;4.35;;;4.15;;
65552;SDS011;52465;51.560;14.368;2023-04-24T01:31:02;4.43;;;4.13;;
65552;SDS011;52465;51.560;14.368;2023-04-24T01:33:27;4.35;;;4.13;;
65552;SDS011;52465;51.560;14.368;2023-04-24T01:35:53;4.38;;;4.07;;
65552;SDS011;52465;51.560;14.368;2023-04-24T01:38:19;4.32;;;4.13;;
65552;SDS011;52465;51.560;14.368;2023-04-24T01:40:44;4.50;;;4.20;;
65552;SDS011;52465;51.560;14.368;2023-04-24T01:43:10;4.50;;;4.20;;
65552;SDS011;52465;51.560;14.368;2023-04-24T01:45:37;4.60;;;4.30;;
65552;SDS011;52465;51.560;14.368;2023-04-24T01:48:02;4.53;;;4.22;;
65552;SDS011;52465;51.560;14.368;2023-04-24T01:50:28;4.20;;;4.00;;
65552;SDS011;52465;51.560;14.368;2023-04-24T01:52:53;4.55;;;4.25;;
65552;SDS011;52465;51.560;14.368;2023-04-24T01:55:19;4.30;;;4.03;;
65552;SDS011;52465;51.560;14.368;2023-04-24T01:57:44;4.50;;;4.30;;
65552;SDS011;52465;51.560;14.368;2023-04-24T02:00:13;4.40;;;4.10;;
65552;SDS011;52465;51.560;14.368;2023-04-24T02:02:41;4.40;;;4.20;;
65552;SDS011;52465;51.560;14.368;2023-04-24T02:05:07;4.47;;;4.18;;
65552;SDS011;52465;51.560;14.368;2023-04-24T02:07:33;4.20;;;4.00;;
65552;SDS011;52465;51.560;14.368;2023-04-24T02:12:43;4.25;;;4.05;;
65552;SDS011;52465;51.560;14.368;2023-04-24T02:15:08;4.40;;;4.20;;
65552;SDS011;52465;51.560;14.368;2023-04-24T02:17:34;4.70;;;4.40;;
65552;SDS011;52465;51.560;14.368;2023-04-24T02:19:59;4.30;;;4.10;;
65552;SDS011;52465;51.560;14.368;2023-04-24T02:22:25;4.75;;;4.38;;
65552;SDS011;52465;51.560;14.368;2023-04-24T02:24:50;4.57;;;4.28;;
65552;SDS011;52465;51.560;14.368;2023-04-24T02:27:16;4.28;;;4.07;;
65552;SDS011;52465;51.560;14.368;2023-04-24T02:29:41;4.32;;;4.03;;
65552;SDS011;52465;51.560;14.368;2023-04-24T02:32:07;4.30;;;4.03;;
65552;SDS011;52465;51.560;14.368;2023-04-24T02:34:39;4.65;;;4.35;;
65552;SDS011;52465;51.560;14.368;2023-04-24T02:37:05;4.35;;;4.15;;
65552;SDS011;52465;51.560;14.368;2023-04-24T02:39:31;4.43;;;4.22;;
65552;SDS011;52465;51.560;14.368;2023-04-24T02:41:56;4.60;;;4.30;;
65552;SDS011;52465;51.560;14.368;2023-04-24T02:44:22;4.88;;;4.43;;
65552;SDS011;52465;51.560;14.368;2023-04-24T02:46:47;4.68;;;4.38;;
65552;SDS011;52465;51.560;14.368;2023-04-24T02:49:13;4.57;;;4.28;;
65552;SDS011;52465;51.560;14.368;2023-04-24T02:51:39;4.18;;;3.97;;
65552;SDS011;52465;51.560;14.368;2023-04-24T02:54:06;4.18;;;3.97;;
65552;SDS011;52465;51.560;14.368;2023-04-24T02:56:34;4.43;;;4.13;;
65552;SDS011;52465;51.560;14.368;2023-04-24T02:58:59;4.38;;;4.10;;
65552;SDS011;52465;51.560;14.368;2023-04-24T03:01:24;4.78;;;4.47;;
65552;SDS011;52465;51.560;14.368;2023-04-24T03:03:50;4.35;;;4.10;;
65552;SDS011;52465;51.560;14.368;2023-04-24T03:06:16;4.60;;;4.30;;
65552;SDS011;52465;51.560;14.368;2023-04-24T03:08:41;4.55;;;4.25;;
65552;SDS011;52465;51.560;14.368;2023-04-24T03:11:06;4.53;;;4.22;;
65552;SDS011;52465;51.560;14.368;2023-04-24T03:13:32;4.25;;;4.00;;
65552;SDS011;52465;51.560;14.368;2023-04-24T03:15:57;4.57;;;4.25;;
65552;SDS011;52465;51.560;14.368;2023-04-24T03:18:23;4.50;;;4.25;;
65552;SDS011;52465;51.560;14.368;2023-04-24T03:20:49;4.32;;;4.13;;
65552;SDS011;52465;51.560;14.368;2023-04-24T03:23:15;4.50;;;4.20;;
65552;SDS011;52465;51.560;14.368;2023-04-24T03:25:40;4.70;;;4.40;;
65552;SDS011;52465;51.560;14.368;2023-04-24T03:28:10;4.18;;;3.97;;
65552;SDS011;52465;51.560;14.368;2023-04-24T03:30:57;4.65;;;4.35;;
65552;SDS011;52465;51.560;14.368;2023-04-24T03:33:23;4.65;;;4.28;;
65552;SDS011;52465;51.560;14.368;2023-04-24T03:35:48;4.63;;;4.32;;
65552;SDS011;52465;51.560;14.368;2023-04-24T03:38:13;4.50;;;4.20;;
65552;SDS011;52465;51.560;14.368;2023-04-24T03:40:39;4.60;;;4.30;;
65552;SDS011;52465;51.560;14.368;2023-04-24T03:43:04;4.40;;;4.10;;
65552;SDS011;52465;51.560;14.368;2023-04-24T03:45:30;4.63;;;4.32;;
65552;SDS011;52465;51.560;14.368;2023-04-24T03:47:55;4.70;;;4.40;;
65552;SDS011;52465;51.560;14.368;2023-04-24T03:50:20;4.50;;;4.30;;
65552;SDS011;52465;51.560;14.368;2023-04-24T03:52:49;4.50;;;4.20;;
65552;SDS011;52465;51.560;14.368;2023-04-24T03:55:14;4.28;;;4.07;;
65552;SDS011;52465;51.560;14.368;2023-04-24T03:57:40;4.43;;;4.22;;
65552;SDS011;52465;51.560;14.368;2023-04-24T04:00:06;4.30;;;4.00;;
65552;SDS011;52465;51.560;14.368;2023-04-24T04:02:32;4.90;;;4.60;;
65552;SDS011;52465;51.560;14.368;2023-04-24T04:04:58;4.22;;;4.00;;
65552;SDS011;52465;51.560;14.368;2023-04-24T04:07:23;4.93;;;4.18;;
65552;SDS011;52465;51.560;14.368;2023-04-24T04:09:48;4.80;;;4.50;;
65552;SDS011;52465;51.560;14.368;2023-04-24T04:12:14;4.15;;;3.95;;
65552;SDS011;52465;51.560;14.368;2023-04-24T04:14:39;4.45;;;4.15;;
65552;SDS011;52465;51.560;14.368;2023-04-24T04:17:06;4.65;;;4.35;;
65552;SDS011;52465;51.560;14.368;2023-04-24T04:19:31;4.65;;;4.35;;
65552;SDS011;52465;51.560;14.368;2023-04-24T04:21:56;4.50;;;4.30;;
65552;SDS011;52465;51.560;14.368;2023-04-24T04:24:22;4.50;;;4.20;;
65552;SDS011;52465;51.560;14.368;2023-04-24T04:26:49;4.80;;;4.40;;
65552;SDS011;52465;51.560;14.368;2023-04-24T04:29:17;4.43;;;4.13;;
65552;SDS011;52465;51.560;14.368;2023-04-24T04:31:44;4.43;;;4.13;;
65552;SDS011;52465;51.560;14.368;2023-04-24T04:34:10;4.70;;;4.40;;
65552;SDS011;52465;51.560;14.368;2023-04-24T04:36:37;4.38;;;4.10;;
65552;SDS011;52465;51.560;14.368;2023-04-24T04:39:05;4.40;;;4.20;;
65552;SDS011;52465;51.560;14.368;2023-04-24T04:41:30;4.50;;;4.20;;
65552;SDS011;52465;51.560;14.368;2023-04-24T04:43:56;5.22;;;4.72;;
65552;SDS011;52465;51.560;14.368;2023-04-24T04:46:23;4.80;;;4.50;;
65552;SDS011;52465;51.560;14.368;2023-04-24T04:48:50;4.90;;;4.60;;
65552;SDS011;52465;51.560;14.368;2023-04-24T04:51:16;4.85;;;4.55;;
65552;SDS011;52465;51.560;14.368;2023-04-24T04:53:42;4.82;;;4.53;;
65552;SDS011;52465;51.560;14.368;2023-04-24T04:56:07;4.60;;;4.30;;
65552;SDS011;52465;51.560;14.368;2023-04-24T04:58:32;4.60;;;4.30;;
65552;SDS011;52465;51.560;14.368;2023-04-24T05:00:58;4.60;;;4.30;;
65552;SDS011;52465;51.560;14.368;2023-04-24T05:03:24;4.72;;;4.32;;
65552;SDS011;52465;51.560;14.368;2023-04-24T05:05:49;4.50;;;4.20;;
65552;SDS011;52465;51.560;14.368;2023-04-24T05:08:14;4.65;;;4.35;;
65552;SDS011;52465;51.560;14.368;2023-04-24T05:10:40;4.70;;;4.40;;
65552;SDS011;52465;51.560;14.368;2023-04-24T05:13:06;4.30;;;4.05;;
65552;SDS011;52465;51.560;14.368;2023-04-24T05:15:32;4.50;;;4.20;;
65552;SDS011;52465;51.560;14.368;2023-04-24T05:17:57;4.65;;;4.35;;
65552;SDS011;52465;51.560;14.368;2023-04-24T05:20:24;4.57;;;4.28;;
65552;SDS011;52465;51.560;14.368;2023-04-24T05:22:49;4.40;;;4.10;;
65552;SDS011;52465;51.560;14.368;2023-04-24T05:25:15;4.40;;;4.10;;
65552;SDS011;52465;51.560;14.368;2023-04-24T05:27:40;4.43;;;4.13;;
65552;SDS011;52465;51.560;14.368;2023-04-24T05:30:06;4.10;;;3.90;;
65552;SDS011;52465;51.560;14.368;2023-04-24T05:32:33;4.40;;;4.15;;
65552;SDS011;52465;51.560;14.368;2023-04-24T05:34:58;4.60;;;4.30;;
65552;SDS011;52465;51.560;14.368;2023-04-24T05:40:08;4.55;;;4.25;;
65552;SDS011;52465;51.560;14.368;2023-04-24T05:42:34;4.45;;;4.15;;
65552;SDS011;52465;51.560;14.368;2023-04-24T05:44:59;4.50;;;4.20;;
65552;SDS011;52465;51.560;14.368;2023-04-24T05:47:25;4.40;;;4.13;;
65552;SDS011;52465;51.560;14.368;2023-04-24T05:49:51;4.55;;;4.25;;
65552;SDS011;52465;51.560;14.368;2023-04-24T05:52:16;4.57;;;4.30;;
65552;SDS011;52465;51.560;14.368;2023-04-24T05:54:42;4.60;;;4.30;;
65552;SDS011;52465;51.560;14.368;2023-04-24T05:57:07;4.18;;;3.97;;
65552;SDS011;52465;51.560;14.368;2023-04-24T05:59:33;4.70;;;4.40;;
65552;SDS011;52465;51.560;14.368;2023-04-24T06:02:00;4.28;;;3.97;;
65552;SDS011;52465;51.560;14.368;2023-04-24T06:04:25;3.85;;;3.65;;
65552;SDS011;52465;51.560;14.368;2023-04-24T06:06:50;4.15;;;3.90;;
65552;SDS011;52465;51.560;14.368;2023-04-24T06:09:20;4.70;;;4.40;;
65552;SDS011;52465;51.560;14.368;2023-04-24T06:11:49;4.35;;;4.10;;
65552;SDS011;52465;51.560;14.368;2023-04-24T06:14:17;4.50;;;4.22;;
65552;SDS011;52465;51.560;14.368;2023-04-24T06:16:42;4.40;;;4.10;;
65552;SDS011;52465;51.560;14.368;2023-04-24T06:19:08;4.20;;;4.00;;
65552;SDS011;52465;51.560;14.368;2023-04-24T06:21:34;4.30;;;4.00;;
65552;SDS011;52465;51.560;14.368;2023-04-24T06:23:59;4.40;;;4.10;;
65552;SDS011;52465;51.560;14.368;2023-04-24T06:26:28;4.30;;;4.10;;
65552;SDS011;52465;51.560;14.368;2023-04-24T06:28:53;4.30;;;4.00;;
65552;SDS011;52465;51.560;14.368;2023-04-24T06:31:23;4.22;;;3.90;;
65552;SDS011;52465;51.560;14.368;2023-04-24T06:33:48;4.47;;;4.18;;
65552;SDS011;52465;51.560;14.368;2023-04-24T06:36:14;4.55;;;4.25;;
65552;SDS011;52465;51.560;14.368;2023-04-24T06:38:39;4.50;;;4.20;;
65552;SDS011;52465;51.560;14.368;2023-04-24T06:41:05;4.15;;;3.95;;
65552;SDS011;52465;51.560;14.368;2023-04-24T06:43:31;4.25;;;4.05;;
65552;SDS011;52465;51.560;14.368;2023-04-24T06:45:59;4.28;;;4.03;;
65552;SDS011;52465;51.560;14.368;2023-04-24T06:48:25;4.18;;;3.97;;
65552;SDS011;52465;51.560;14.368;2023-04-24T06:50:51;4.30;;;4.10;;
65552;SDS011;52465;51.560;14.368;2023-04-24T06:53:17;4.60;;;4.20;;
65552;SDS011;52465;51.560;14.368;2023-04-24T06:55:42;3.88;;;3.67;;
65552;SDS011;52465;51.560;14.368;2023-04-24T06:58:10;4.13;;;3.92;;
65552;SDS011;52465;51.560;14.368;2023-04-24T07:00:36;4.32;;;4.07;;
65552;SDS011;52465;51.560;14.368;2023-04-24T07:03:02;4.35;;;4.05;;
65552;SDS011;52465;51.560;14.368;2023-04-24T07:05:28;4.13;;;3.92;;
65552;SDS011;52465;51.560;14.368;2023-04-24T07:07:54;4.30;;;4.00;;
65552;SDS011;52465;51.560;14.368;2023-04-24T07:10:19;4.35;;;4.10;;
65552;SDS011;52465;51.560;14.368;2023-04-24T07:12:45;4.40;;;4.10;;
65552;SDS011;52465;51.560;14.368;2023-04-24T07:15:11;4.32;;;4.03;;
65552;SDS011;52465;51.560;14.368;2023-04-24T07:17:36;4.18;;;3.88;;
65552;SDS011;52465;51.560;14.368;2023-04-24T07:20:03;4.20;;;4.00;;
65552;SDS011;52465;51.560;14.368;2023-04-24T07:22:30;4.35;;;4.15;;
65552;SDS011;52465;51.560;14.368;2023-04-24T07:24:56;4.10;;;3.90;;
65552;SDS011;52465;51.560;14.368;2023-04-24T07:27:21;4.00;;;3.80;;
65552;SDS011;52465;51.560;14.368;2023-04-24T07:29:46;3.88;;;3.67;;
65552;SDS011;52465;51.560;14.368;2023-04-24T07:32:12;4.30;;;4.00;;
65552;SDS011;52465;51.560;14.368;2023-04-24T07:34:37;4.22;;;4.03;;
65552;SDS011;52465;51.560;14.368;2023-04-24T07:37:03;4.10;;;3.90;;
65552;SDS011;52465;51.560;14.368;2023-04-24T07:39:28;4.22;;;4.03;;
65552;SDS011;52465;51.560;14.368;2023-04-24T07:41:54;4.43;;;4.15;;
65552;SDS011;52465;51.560;14.368;2023-04-24T07:44:19;3.90;;;3.70;;
65552;SDS011;52465;51.560;14.368;2023-04-24T07:46:45;4.18;;;3.97;;
65552;SDS011;52465;51.560;14.368;2023-04-24T07:49:10;4.00;;;3.80;;
65552;SDS011;52465;51.560;14.368;2023-04-24T07:51:36;4.25;;;4.05;;
65552;SDS011;52465;51.560;14.368;2023-04-24T07:54:03;4.18;;;3.97;;
65552;SDS011;52465;51.560;14.368;2023-04-24T07:56:31;4.20;;;3.90;;
65552;SDS011;52465;51.560;14.368;2023-04-24T07:58:58;4.43;;;4.13;;
65552;SDS011;52465;51.560;14.368;2023-04-24T08:01:26;3.70;;;3.50;;
65552;SDS011;52465;51.560;14.368;2023-04-24T08:03:52;4.05;;;3.78;;
65552;SDS011;52465;51.560;14.368;2023-04-24T08:06:17;4.32;;;4.13;;
65552;SDS011;52465;51.560;14.368;2023-04-24T08:08:42;4.20;;;4.00;;
65552;SDS011;52465;51.560;14.368;2023-04-24T08:11:08;4.22;;;4.03;;
65552;SDS011;52465;51.560;14.368;2023-04-24T08:13:33;4.10;;;3.90;;
65552;SDS011;52465;51.560;14.368;2023-04-24T08:15:59;4.20;;;4.00;;
65552;SDS011;52465;51.560;14.368;2023-04-24T08:18:24;4.10;;;3.90;;
65552;SDS011;52465;51.560;14.368;2023-04-24T08:20:49;4.43;;;4.20;;
65552;SDS011;52465;51.560;14.368;2023-04-24T08:23:15;4.00;;;3.70;;
65552;SDS011;52465;51.560;14.368;2023-04-24T08:25:40;4.10;;;3.90;;
65552;SDS011;52465;51.560;14.368;2023-04-24T08:28:08;4.20;;;3.90;;
65552;SDS011;52465;51.560;14.368;2023-04-24T08:30:35;4.03;;;3.83;;
65552;SDS011;52465;51.560;14.368;2023-04-24T08:33:00;4.13;;;3.92;;
65552;SDS011;52465;51.560;14.368;2023-04-24T08:35:26;4.00;;;3.80;;
65552;SDS011;52465;51.560;14.368;2023-04-24T08:37:52;3.95;;;3.75;;
65552;SDS011;52465;51.560;14.368;2023-04-24T08:40:22;3.90;;;3.70;;
65552;SDS011;52465;51.560;14.368;2023-04-24T08:42:57;3.90;;;3.70;;
65552;SDS011;52465;51.560;14.368;2023-04-24T08:45:24;4.30;;;4.00;;
65552;SDS011;52465;51.560;14.368;2023-04-24T08:47:50;4.20;;;4.00;;
65552;SDS011;52465;51.560;14.368;2023-04-24T08:50:18;3.85;;;3.53;;
65552;SDS011;52465;51.560;14.368;2023-04-24T08:52:44;3.80;;;3.60;;
65552;SDS011;52465;51.560;14.368;2023-04-24T08:55:09;4.00;;;3.80;;
65552;SDS011;52465;51.560;14.368;2023-04-24T08:57:35;4.20;;;4.00;;
65552;SDS011;52465;51.560;14.368;2023-04-24T09:00:01;3.83;;;3.63;;
65552;SDS011;52465;51.560;14.368;2023-04-24T09:02:28;4.05;;;3.75;;
65552;SDS011;52465;51.560;14.368;2023-04-24T09:04:54;4.10;;;3.90;;
65552;SDS011;52465;51.560;14.368;2023-04-24T09:07:21;3.88;;;3.63;;
65552;SDS011;52465;51.560;14.368;2023-04-24T09:09:50;4.30;;;4.10;;
65552;SDS011;52465;51.560;14.368;2023-04-24T09:12:16;4.32;;;4.03;;
65552;SDS011;52465;51.560;14.368;2023-04-24T09:14:42;3.83;;;3.63;;
65552;SDS011;52465;51.560;14.368;2023-04-24T09:17:10;3.92;;;3.72;;
65552;SDS011;52465;51.560;14.368;2023-04-24T09:19:36;4.10;;;3.90;;
65552;SDS011;52465;51.560;14.368;2023-04-24T09:22:05;4.30;;;4.00;;
65552;SDS011;52465;51.560;14.368;2023-04-24T09:26:57;3.80;;;3.60;;
65552;SDS011;52465;51.560;14.368;2023-04-24T09:29:23;3.90;;;3.70;;
65552;SDS011;52465;51.560;14.368;2023-04-24T09:31:50;3.80;;;3.60;;
65552;SDS011;52465;51.560;14.368;2023-04-24T09:34:19;3.78;;;3.58;;
65552;SDS011;52465;51.560;14.368;2023-04-24T09:36:48;4.18;;;3.88;;
65552;SDS011;52465;51.560;14.368;2023-04-24T09:39:15;3.92;;;3.72;;
65552;SDS011;52465;51.560;14.368;2023-04-24T09:41:44;4.03;;;3.72;;
65552;SDS011;52465;51.560;14.368;2023-04-24T09:44:19;3.80;;;3.60;;
65552;SDS011;52465;51.560;14.368;2023-04-24T09:49:22;4.10;;;3.90;;
65552;SDS011;52465;51.560;14.368;2023-04-24T09:52:02;3.90;;;3.70;;
65552;SDS011;52465;51.560;14.368;2023-04-24T09:54:28;4.20;;;3.90;;
65552;SDS011;52465;51.560;14.368;2023-04-24T09:56:54;3.95;;;3.75;;
65552;SDS011;52465;51.560;14.368;2023-04-24T09:59:20;3.78;;;3.58;;
65552;SDS011;52465;51.560;14.368;2023-04-24T10:01:45;4.47;;;4.07;;
65552;SDS011;52465;51.560;14.368;2023-04-24T10:04:19;4.10;;;3.90;;
65552;SDS011;52465;51.560;14.368;2023-04-24T10:06:48;4.15;;;3.85;;
65552;SDS011;52465;51.560;14.368;2023-04-24T10:09:15;4.00;;;3.80;;
65552;SDS011;52465;51.560;14.368;2023-04-24T10:11:45;3.60;;;3.40;;
65552;SDS011;52465;51.560;14.368;2023-04-24T10:14:12;3.60;;;3.40;;
65552;SDS011;52465;51.560;14.368;2023-04-24T10:16:48;3.80;;;3.60;;
65552;SDS011;52465;51.560;14.368;2023-04-24T10:19:15;3.92;;;3.63;;
65552;SDS011;52465;51.560;14.368;2023-04-24T10:21:43;4.15;;;3.80;;
65552;SDS011;52465;51.560;14.368;2023-04-24T10:24:16;3.90;;;3.70;;
65552;SDS011;52465;51.560;14.368;2023-04-24T10:26:43;4.10;;;3.88;;
65552;SDS011;52465;51.560;14.368;2023-04-24T10:29:12;4.00;;;3.80;;
65552;SDS011;52465;51.560;14.368;2023-04-24T10:31:43;3.70;;;3.50;;
65552;SDS011;52465;51.560;14.368;2023-04-24T10:34:12;3.83;;;3.63;;
65552;SDS011;52465;51.560;14.368;2023-04-24T10:36:40;3.80;;;3.60;;
65552;SDS011;52465;51.560;14.368;2023-04-24T10:39:09;4.00;;;3.80;;
65552;SDS011;52465;51.560;14.368;2023-04-24T10:41:37;3.95;;;3.75;;
65552;SDS011;52465;51.560;14.368;2023-04-24T10:44:10;4.07;;;3.88;;
65552;SDS011;52465;51.560;14.368;2023-04-24T10:46:38;3.60;;;3.50;;
65552;SDS011;52465;51.560;14.368;2023-04-24T10:49:05;4.18;;;3.95;;
65552;SDS011;52465;51.560;14.368;2023-04-24T10:51:47;4.15;;;3.80;;
65552;SDS011;52465;51.560;14.368;2023-04-24T10:54:22;3.70;;;3.50;;
65552;SDS011;52465;51.560;14.368;2023-04-24T10:56:48;3.78;;;3.58;;
65552;SDS011;52465;51.560;14.368;2023-04-24T10:59:23;3.95;;;3.75;;
65552;SDS011;52465;51.560;14.368;2023-04-24T11:01:53;3.88;;;3.67;;
65552;SDS011;52465;51.560;14.368;2023-04-24T11:04:31;3.85;;;3.65;;
65552;SDS011;52465;51.560;14.368;2023-04-24T11:07:00;3.58;;;3.47;;
65552;SDS011;52465;51.560;14.368;2023-04-24T11:09:29;3.78;;;3.58;;
65552;SDS011;52465;51.560;14.368;2023-04-24T11:12:04;3.95;;;3.65;;
65552;SDS011;52465;51.560;14.368;2023-04-24T11:15:00;3.90;;;3.70;;
65552;SDS011;52465;51.560;14.368;2023-04-24T11:17:31;3.70;;;3.50;;
65552;SDS011;52465;51.560;14.368;2023-04-24T11:20:03;3.90;;;3.70;;
65552;SDS011;52465;51.560;14.368;2023-04-24T11:22:36;4.15;;;3.88;;
65552;SDS011;52465;51.560;14.368;2023-04-24T11:28:03;3.88;;;3.67;;
65552;SDS011;52465;51.560;14.368;2023-04-24T11:30:29;4.05;;;3.75;;
65552;SDS011;52465;51.560;14.368;2023-04-24T11:32:56;4.00;;;3.80;;
65552;SDS011;52465;51.560;14.368;2023-04-24T11:35:30;3.60;;;3.50;;
65552;SDS011;52465;51.560;14.368;2023-04-24T11:38:28;3.80;;;3.60;;
65552;SDS011;52465;51.560;14.368;2023-04-24T11:40:54;3.90;;;3.70;;
65552;SDS011;52465;51.560;14.368;2023-04-24T11:43:23;3.72;;;3.53;;
65552;SDS011;52465;51.560;14.368;2023-04-24T11:45:48;3.72;;;3.53;;
65552;SDS011;52465;51.560;14.368;2023-04-24T11:48:18;4.18;;;3.97;;
65552;SDS011;52465;51.560;14.368;2023-04-24T11:50:46;3.78;;;3.50;;
65552;SDS011;52465;51.560;14.368;2023-04-24T11:53:14;4.00;;;3.80;;
65552;SDS011;52465;51.560;14.368;2023-04-24T11:55:40;4.00;;;3.80;;
65552;SDS011;52465;51.560;14.368;2023-04-24T11:58:05;3.97;;;3.78;;
65552;SDS011;52465;51.560;14.368;2023-04-24T12:00:31;3.83;;;3.63;;
65552;SDS011;52465;51.560;14.368;2023-04-24T12:03:07;3.70;;;3.50;;
65552;SDS011;52465;51.560;14.368;2023-04-24T12:05:35;3.90;;;3.70;;
65552;SDS011;52465;51.560;14.368;2023-04-24T12:08:00;3.80;;;3.60;;
65552;SDS011;52465;51.560;14.368;2023-04-24T12:10:27;3.92;;;3.65;;
65552;SDS011;52465;51.560;14.368;2023-04-24T12:12:55;3.45;;;3.35;;
65552;SDS011;52465;51.560;14.368;2023-04-24T12:15:21;3.90;;;3.70;;
65552;SDS011;52465;51.560;14.368;2023-04-24T12:17:47;3.90;;;3.70;;
65552;SDS011;52465;51.560;14.368;2023-04-24T12:20:15;3.80;;;3.60;;
65552;SDS011;52465;51.560;14.368;2023-04-24T12:22:51;3.88;;;3.67;;
65552;SDS011;52465;51.560;14.368;2023-04-24T12:25:21;4.22;;;3.50;;
65552;SDS011;52465;51.560;14.368;2023-04-24T12:27:52;3.95;;;3.75;;
65552;SDS011;52465;51.560;14.368;2023-04-24T12:30:19;3.90;;;3.70;;
65552;SDS011;52465;51.560;14.368;2023-04-24T12:32:46;3.60;;;3.40;;
65552;SDS011;52465;51.560;14.368;2023-04-24T12:35:13;3.58;;;3.38;;
65552;SDS011;52465;51.560;14.368;2023-04-24T12:37:41;3.80;;;3.60;;
65552;SDS011;52465;51.560;14.368;2023-04-24T12:40:10;3.88;;;3.67;;
65552;SDS011;52465;51.560;14.368;2023-04-24T12:42:50;3.80;;;3.60;;
65552;SDS011;52465;51.560;14.368;2023-04-24T12:45:16;3.90;;;3.70;;
65552;SDS011;52465;51.560;14.368;2023-04-24T12:47:43;3.45;;;3.33;;
65552;SDS011;52465;51.560;14.368;2023-04-24T12:50:10;3.70;;;3.50;;
65552;SDS011;52465;51.560;14.368;2023-04-24T12:52:36;3.50;;;3.40;;
65552;SDS011;52465;51.560;14.368;2023-04-24T12:55:03;3.75;;;3.55;;
65552;SDS011;52465;51.560;14.368;2023-04-24T12:57:30;3.80;;;3.60;;
65552;SDS011;52465;51.560;14.368;2023-04-24T12:59:56;3.70;;;3.50;;
65552;SDS011;52465;51.560;14.368;2023-04-24T13:02:23;4.00;;;3.70;;
65552;SDS011;52465;51.560;14.368;2023-04-24T13:07:40;3.60;;;3.40;;
65552;SDS011;52465;51.560;14.368;2023-04-24T13:10:06;3.70;;;3.50;;
65552;SDS011;52465;51.560;14.368;2023-04-24T13:12:32;3.80;;;3.60;;
65552;SDS011;52465;51.560;14.368;2023-04-24T13:15:00;3.97;;;3.78;;
65552;SDS011;52465;51.560;14.368;2023-04-24T13:17:26;3.78;;;3.58;;
65552;SDS011;52465;51.560;14.368;2023-04-24T13:19:53;3.72;;;3.53;;
65552;SDS011;52465;51.560;14.368;2023-04-24T13:22:20;4.28;;;3.70;;
65552;SDS011;52465;51.560;14.368;2023-04-24T13:24:45;3.70;;;3.50;;
65552;SDS011;52465;51.560;14.368;2023-04-24T13:27:13;3.75;;;3.55;;
65552;SDS011;52465;51.560;14.368;2023-04-24T13:29:39;4.07;;;3.72;;
65552;SDS011;52465;51.560;14.368;2023-04-24T13:32:05;3.83;;;3.63;;
65552;SDS011;52465;51.560;14.368;2023-04-24T13:34:31;3.88;;;3.67;;
65552;SDS011;52465;51.560;14.368;2023-04-24T13:36:57;3.80;;;3.60;;
65552;SDS011;52465;51.560;14.368;2023-04-24T13:39:23;3.78;;;3.58;;
65552;SDS011;52465;51.560;14.368;2023-04-24T13:41:50;3.80;;;3.60;;
65552;SDS011;52465;51.560;14.368;2023-04-24T13:44:16;4.32;;;4.13;;
65552;SDS011;52465;51.560;14.368;2023-04-24T13:47:17;3.70;;;3.50;;
65552;SDS011;52465;51.560;14.368;2023-04-24T13:49:43;3.60;;;3.50;;
65552;SDS011;52465;51.560;14.368;2023-04-24T13:52:08;3.40;;;3.30;;
65552;SDS011;52465;51.560;14.368;2023-04-24T13:54:35;3.80;;;3.60;;
65552;SDS011;52465;51.560;14.368;2023-04-24T13:57:00;3.90;;;3.70;;
65552;SDS011;52465;51.560;14.368;2023-04-24T13:59:27;3.55;;;3.45;;
65552;SDS011;52465;51.560;14.368;2023-04-24T14:01:53;3.92;;;3.72;;
65552;SDS011;52465;51.560;14.368;2023-04-24T14:04:18;3.90;;;3.70;;
65552;SDS011;52465;51.560;14.368;2023-04-24T14:06:43;4.00;;;3.70;;
65552;SDS011;52465;51.560;14.368;2023-04-24T14:09:09;3.50;;;3.40;;
65552;SDS011;52465;51.560;14.368;2023-04-24T14:11:34;3.83;;;3.53;;
65552;SDS011;52465;51.560;14.368;2023-04-24T14:14:02;3.50;;;3.40;;
65552;SDS011;52465;51.560;14.368;2023-04-24T14:16:28;3.70;;;3.42;;
65552;SDS011;52465;51.560;14.368;2023-04-24T14:18:53;3.60;;;3.50;;
65552;SDS011;52465;51.560;14.368;2023-04-24T14:21:19;3.63;;;3.40;;
65552;SDS011;52465;51.560;14.368;2023-04-24T14:23:44;3.60;;;3.40;;
65552;SDS011;52465;51.560;14.368;2023-04-24T14:26:10;3.60;;;3.40;;
65552;SDS011;52465;51.560;14.368;2023-04-24T14:28:35;3.70;;;3.50;;
65552;SDS011;52465;51.560;14.368;2023-04-24T14:31:01;3.72;;;3.50;;
65552;SDS011;52465;51.560;14.368;2023-04-24T14:33:26;3.65;;;3.45;;
65552;SDS011;52465;51.560;14.368;2023-04-24T14:35:52;3.70;;;3.50;;
65552;SDS011;52465;51.560;14.368;2023-04-24T14:38:17;3.80;;;3.60;;
65552;SDS011;52465;51.560;14.368;2023-04-24T14:40:42;3.95;;;3.65;;
65552;SDS011;52465;51.560;14.368;2023-04-24T14:43:08;3.95;;;3.75;;
65552;SDS011;52465;51.560;14.368;2023-04-24T14:45:33;3.63;;;3.50;;
65552;SDS011;52465;51.560;14.368;2023-04-24T14:47:59;4.03;;;3.80;;
65552;SDS011;52465;51.560;14.368;2023-04-24T14:50:24;3.67;;;3.50;;